Time;durP1;ratioP1;P1;durP2;ratioP2;P2;SDS_P1;SDS_P2;PMS_P1;PMS_P2;Temp;Humidity;BMP_temperature;BMP_pressure;BME280_temperature;BME280_humidity;BME280_pressure;Samples;Min_cycle;Max_cycle;Signal;HPM_P1;HPM_P2
2022/04/20 00:00:52;;;;;;;3.90;3.60;;;10.30;57.80;;;;;;5063441;28;20187;-62
2022/04/20 00:03:17;;;;;;;4.93;4.50;;;10.40;58.50;;;;;;5074976;28;20489;-63
2022/04/20 00:05:43;;;;;;;5.00;4.07;;;10.40;58.80;;;;;;5071273;28;20416;-63
2022/04/20 00:08:08;;;;;;;4.40;4.00;;;10.20;59.30;;;;;;5066311;28;20191;-63
2022/04/20 00:10:34;;;;;;;3.83;3.50;;;10.30;60.00;;;;;;5063370;28;20220;-63
2022/04/20 00:12:59;;;;;;;4.70;4.30;;;10.30;60.30;;;;;;5061362;28;20214;-63
2022/04/20 00:15:25;;;;;;;4.40;4.00;;;10.10;60.80;;;;;;5064305;28;20274;-63
2022/04/20 00:17:51;;;;;;;4.73;4.33;;;10.10;61.20;;;;;;5068426;28;20218;-63
2022/04/20 00:20:17;;;;;;;6.77;4.20;;;10.20;62.20;;;;;;5063401;28;20194;-63
2022/04/20 00:22:43;;;;;;;5.20;4.45;;;10.00;62.20;;;;;;5070610;28;20799;-63
2022/04/20 00:25:08;;;;;;;5.23;4.30;;;9.90;64.10;;;;;;5065345;28;20205;-63
2022/04/20 00:27:35;;;;;;;5.80;4.60;;;10.10;63.90;;;;;;5068121;28;20440;-63
2022/04/20 00:30:06;;;;;;;4.97;4.50;;;9.70;64.70;;;;;;5070593;28;20201;-63
2022/04/20 00:32:32;;;;;;;4.57;4.18;;;10.00;64.40;;;;;;5069412;28;20622;-63
2022/04/20 00:34:58;;;;;;;4.85;4.40;;;10.30;64.80;;;;;;5070440;28;20230;-63
2022/04/20 00:37:24;;;;;;;6.33;4.83;;;9.90;66.40;;;;;;5068504;28;20605;-63
2022/04/20 00:39:49;;;;;;;4.93;4.53;;;9.90;67.00;;;;;;5067032;28;20191;-63
2022/04/20 00:42:15;;;;;;;4.80;4.40;;;9.80;67.70;;;;;;5065466;28;20573;-63
2022/04/20 00:44:42;;;;;;;5.00;4.43;;;9.90;68.20;;;;;;5070217;28;20211;-63
2022/04/20 00:47:09;;;;;;;5.10;4.60;;;9.60;68.00;;;;;;5066611;28;20471;-63
2022/04/20 00:49:39;;;;;;;4.88;4.28;;;9.40;68.40;;;;;;5064504;28;20265;-63
2022/04/20 00:52:06;;;;;;;5.35;4.90;;;9.80;69.20;;;;;;5067464;28;20208;-63
2022/04/20 00:54:31;;;;;;;5.20;4.70;;;9.70;70.00;;;;;;5068054;28;20211;-63
2022/04/20 00:56:57;;;;;;;5.47;4.97;;;9.50;69.60;;;;;;5066596;28;20212;-63
2022/04/20 00:59:26;;;;;;;4.47;4.17;;;9.60;70.40;;;;;;5068969;28;20175;-63
2022/04/20 01:01:52;;;;;;;5.00;4.60;;;9.70;71.20;;;;;;5060752;28;20554;-62
2022/04/20 01:04:18;;;;;;;5.47;4.97;;;9.50;70.30;;;;;;5064075;28;20675;-63
2022/04/20 01:06:45;;;;;;;5.18;4.78;;;9.40;70.20;;;;;;5070390;28;20418;-63
2022/04/20 01:09:11;;;;;;;6.20;4.95;;;9.90;71.00;;;;;;5061009;28;20286;-63
2022/04/20 01:11:37;;;;;;;5.70;5.10;;;9.60;71.10;;;;;;5066777;28;20355;-63
2022/04/20 01:14:03;;;;;;;5.50;5.00;;;9.70;71.50;;;;;;5063382;28;20203;-63
2022/04/20 01:16:29;;;;;;;5.22;4.75;;;9.50;71.80;;;;;;5064074;28;20190;-63
2022/04/20 01:18:55;;;;;;;5.60;5.07;;;9.50;72.20;;;;;;5068816;28;20174;-62
2022/04/20 01:21:22;;;;;;;5.50;5.10;;;9.10;72.00;;;;;;5069072;28;20209;-63
2022/04/20 01:23:47;;;;;;;5.38;4.93;;;9.20;72.60;;;;;;5069183;28;20634;-63
2022/04/20 01:26:13;;;;;;;9.10;4.80;;;9.30;73.10;;;;;;5066015;28;20177;-63
2022/04/20 01:28:43;;;;;;;7.10;5.37;;;9.20;73.30;;;;;;5066140;28;20667;-63
2022/04/20 01:31:12;;;;;;;5.40;4.90;;;8.90;72.90;;;;;;5064168;28;20198;-63
2022/04/20 01:33:37;;;;;;;5.03;4.63;;;9.40;73.60;;;;;;5068055;28;20413;-63
2022/04/20 01:36:03;;;;;;;5.43;4.93;;;9.10;73.60;;;;;;5069016;28;20612;-63
2022/04/20 01:38:29;;;;;;;5.30;4.73;;;9.10;73.90;;;;;;5069104;28;20188;-62
2022/04/20 01:40:54;;;;;;;5.10;4.70;;;9.30;74.30;;;;;;5064776;28;20190;-63
2022/04/20 01:43:20;;;;;;;5.70;5.20;;;8.90;74.40;;;;;;5062747;28;20238;-63
2022/04/20 01:45:45;;;;;;;5.93;5.43;;;9.00;74.90;;;;;;5067556;28;20195;-63
2022/04/20 01:48:11;;;;;;;5.50;5.00;;;8.50;74.80;;;;;;5068771;28;20194;-63
2022/04/20 01:51:46;;;;;;;5.50;5.00;;;8.90;75.40;;;;;;5063962;28;20670;-63
2022/04/20 01:53:22;;;;;;;6.18;5.10;;;8.90;75.60;;;;;;5066412;28;20203;-63
2022/04/20 01:55:47;;;;;;;5.40;5.00;;;8.90;75.80;;;;;;5066976;28;20574;-63
2022/04/20 01:58:13;;;;;;;6.10;5.60;;;8.60;75.90;;;;;;5063753;28;20181;-63
2022/04/20 02:00:38;;;;;;;7.37;5.73;;;8.90;76.20;;;;;;5062604;28;20189;-63
2022/04/20 02:03:04;;;;;;;5.60;5.20;;;8.90;76.80;;;;;;5068096;28;20214;-63
2022/04/20 02:05:30;;;;;;;6.60;5.32;;;8.90;76.90;;;;;;5063704;28;20639;-63
2022/04/20 02:07:57;;;;;;;5.90;5.37;;;8.80;77.00;;;;;;5069319;28;20188;-62
2022/04/20 02:10:23;;;;;;;6.07;5.57;;;8.70;77.00;;;;;;5062691;28;20206;-63
2022/04/20 02:12:48;;;;;;;6.60;5.93;;;8.60;77.50;;;;;;5072313;28;20545;-63
2022/04/20 02:15:14;;;;;;;7.17;6.47;;;8.80;78.50;;;;;;5072800;28;20431;-63
2022/04/20 02:17:39;;;;;;;5.90;5.40;;;8.90;78.90;;;;;;5069209;28;20199;-63
2022/04/20 02:20:05;;;;;;;6.70;5.00;;;8.30;78.50;;;;;;5071537;28;20189;-63
2022/04/20 02:22:31;;;;;;;7.97;5.25;;;8.40;79.40;;;;;;5072179;28;20192;-63
2022/04/20 02:24:59;;;;;;;5.47;5.00;;;8.80;79.90;;;;;;5070316;28;20205;-63
2022/04/20 02:27:26;;;;;;;6.30;5.70;;;8.20;80.30;;;;;;5072507;28;20439;-63
2022/04/20 02:29:51;;;;;;;5.32;4.85;;;8.40;81.80;;;;;;5068563;28;20216;-63
2022/04/20 02:32:17;;;;;;;5.77;5.20;;;8.10;83.30;;;;;;5066583;28;20258;-63
2022/04/20 02:34:42;;;;;;;4.77;4.43;;;8.00;84.00;;;;;;5069507;28;20201;-63
2022/04/20 02:37:09;;;;;;;5.27;4.73;;;8.40;84.20;;;;;;5070008;28;20204;-63
2022/04/20 02:39:36;;;;;;;5.22;4.60;;;8.30;84.70;;;;;;5070646;28;20711;-63
2022/04/20 02:42:02;;;;;;;8.18;5.07;;;8.20;85.80;;;;;;5071795;28;20551;-63
2022/04/20 02:44:27;;;;;;;6.65;5.57;;;8.10;88.00;;;;;;5070614;28;20675;-63
2022/04/20 02:46:53;;;;;;;5.20;4.70;;;8.50;89.90;;;;;;5069359;28;20292;-63
2022/04/20 02:49:21;;;;;;;5.07;4.67;;;7.80;88.70;;;;;;5071246;28;20193;-63
2022/04/20 02:51:46;;;;;;;5.80;4.70;;;7.80;89.00;;;;;;5071704;28;20644;-62
2022/04/20 02:54:12;;;;;;;5.47;4.97;;;7.50;89.70;;;;;;5071962;28;20296;-63
2022/04/20 02:56:37;;;;;;;5.30;4.80;;;7.70;90.20;;;;;;5065211;28;20268;-63
2022/04/20 02:59:03;;;;;;;5.43;4.93;;;7.30;90.80;;;;;;5065004;28;20185;-62
2022/04/20 03:01:30;;;;;;;5.53;5.07;;;7.50;91.70;;;;;;5069286;28;20603;-63
2022/04/20 03:03:57;;;;;;;6.13;5.53;;;6.80;91.80;;;;;;5071086;28;20205;-62
2022/04/20 03:06:23;;;;;;;5.40;5.00;;;7.30;92.40;;;;;;5069894;28;20195;-63
2022/04/20 03:08:48;;;;;;;5.40;4.77;;;7.40;92.40;;;;;;5070448;28;20197;-60
2022/04/20 03:11:14;;;;;;;6.40;5.90;;;6.80;92.90;;;;;;5071286;28;20201;-63
2022/04/20 03:13:39;;;;;;;7.93;5.53;;;7.20;93.00;;;;;;5067148;28;20623;-62
2022/04/20 03:16:05;;;;;;;5.40;5.00;;;6.60;93.40;;;;;;5065386;28;20177;-63
2022/04/20 03:18:32;;;;;;;5.20;4.73;;;7.00;93.80;;;;;;5070598;28;20654;-62
2022/04/20 03:20:59;;;;;;;5.55;5.05;;;6.60;94.00;;;;;;5069185;28;20212;-63
2022/04/20 03:23:25;;;;;;;6.38;5.30;;;6.90;94.20;;;;;;5071125;28;20218;-63
2022/04/20 03:25:50;;;;;;;6.43;5.77;;;7.00;94.50;;;;;;5065584;28;20189;-62
2022/04/20 03:28:16;;;;;;;5.57;5.10;;;7.00;95.20;;;;;;5069944;28;20184;-63
2022/04/20 03:30:42;;;;;;;5.67;5.07;;;7.00;95.40;;;;;;5065054;28;20209;-63
2022/04/20 03:33:09;;;;;;;6.63;5.67;;;6.30;95.40;;;;;;5071316;28;20193;-63
2022/04/20 03:35:36;;;;;;;6.07;5.47;;;6.80;95.80;;;;;;5072531;28;20220;-62
2022/04/20 03:38:02;;;;;;;6.10;5.50;;;6.40;96.10;;;;;;5070835;28;20712;-60
2022/04/20 03:40:28;;;;;;;6.32;5.57;;;6.30;96.10;;;;;;5063273;28;20234;-61
2022/04/20 03:42:53;;;;;;;5.00;4.60;;;6.60;96.40;;;;;;5070493;28;20184;-61
2022/04/20 03:45:19;;;;;;;5.83;5.30;;;6.70;96.90;;;;;;5070915;28;20555;-60
2022/04/20 03:47:44;;;;;;;6.07;5.57;;;7.00;96.70;;;;;;5067178;28;20189;-61
2022/04/20 03:50:10;;;;;;;5.40;4.93;;;6.60;96.20;;;;;;5067414;28;20212;-60
2022/04/20 03:52:38;;;;;;;5.87;5.37;;;6.70;96.40;;;;;;5065860;28;20233;-60
2022/04/20 03:55:04;;;;;;;8.32;5.57;;;6.50;96.50;;;;;;5066597;28;20184;-61
2022/04/20 03:57:29;;;;;;;5.45;4.95;;;6.50;96.90;;;;;;5065337;28;20190;-60
2022/04/20 03:59:55;;;;;;;5.97;5.37;;;6.60;97.30;;;;;;5069393;28;20200;-61
2022/04/20 04:02:20;;;;;;;6.20;5.60;;;6.20;97.30;;;;;;5063377;28;20189;-61
2022/04/20 04:04:46;;;;;;;8.67;6.00;;;5.80;96.90;;;;;;5071137;28;20294;-61
2022/04/20 04:07:11;;;;;;;5.37;4.87;;;6.30;97.00;;;;;;5071127;28;20268;-61
2022/04/20 04:09:38;;;;;;;5.80;5.13;;;6.40;97.20;;;;;;5068640;28;20216;-61
2022/04/20 04:12:04;;;;;;;7.50;5.20;;;6.40;97.70;;;;;;5065201;28;20745;-60
2022/04/20 04:14:30;;;;;;;7.60;6.40;;;6.30;97.70;;;;;;5070281;28;20208;-61
2022/04/20 04:16:55;;;;;;;6.57;5.70;;;5.60;97.50;;;;;;5068445;28;20642;-61
2022/04/20 04:19:21;;;;;;;5.63;5.20;;;6.40;97.90;;;;;;5069231;28;20239;-61
2022/04/20 04:21:47;;;;;;;6.50;5.90;;;6.30;97.60;;;;;;5069657;28;20242;-61
2022/04/20 04:24:34;;;;;;;6.57;5.80;;;6.10;97.70;;;;;;5070095;28;20200;-61
2022/04/20 04:26:59;;;;;;;6.07;4.90;;;6.40;97.60;;;;;;5066112;28;20719;-60
2022/04/20 04:29:25;;;;;;;6.90;6.30;;;5.70;97.30;;;;;;5070096;28;20275;-61
2022/04/20 04:31:50;;;;;;;7.05;5.78;;;6.20;97.70;;;;;;5067628;28;21371;-61
2022/04/20 04:34:16;;;;;;;8.93;6.00;;;6.30;98.20;;;;;;5066858;28;20203;-61
2022/04/20 04:36:43;;;;;;;5.40;4.90;;;5.50;97.70;;;;;;5069523;28;20180;-60
2022/04/20 04:39:09;;;;;;;5.68;5.18;;;6.10;97.90;;;;;;5067001;28;20181;-61
2022/04/20 04:41:34;;;;;;;5.27;4.77;;;5.80;97.40;;;;;;5069012;28;20203;-61
2022/04/20 04:44:00;;;;;;;5.63;5.13;;;6.30;98.20;;;;;;5066851;28;20314;-60
2022/04/20 04:49:09;;;;;;;6.80;6.20;;;6.20;97.60;;;;;;5066109;28;20763;-61
2022/04/20 04:51:35;;;;;;;6.80;5.70;;;5.80;97.50;;;;;;5064614;28;20201;-61
2022/04/20 04:54:00;;;;;;;7.63;5.90;;;5.90;97.60;;;;;;5068611;28;20202;-61
2022/04/20 04:56:26;;;;;;;6.70;6.20;;;6.40;97.60;;;;;;5066830;28;20180;-61
2022/04/20 04:58:52;;;;;;;6.17;5.67;;;6.20;97.60;;;;;;5067894;28;20179;-61
2022/04/20 05:01:17;;;;;;;6.43;5.80;;;5.70;97.70;;;;;;5065373;28;20195;-61
2022/04/20 05:03:43;;;;;;;6.60;5.80;;;6.00;98.10;;;;;;5066084;28;20220;-61
2022/04/20 05:06:08;;;;;;;6.70;6.00;;;6.20;98.20;;;;;;5067791;28;20199;-60
2022/04/20 05:08:34;;;;;;;6.77;6.07;;;6.50;98.70;;;;;;5063200;28;20658;-61
2022/04/20 05:10:59;;;;;;;5.80;5.30;;;5.50;98.30;;;;;;5066993;28;20631;-62
2022/04/20 05:13:25;;;;;;;5.47;4.97;;;5.60;97.90;;;;;;5068181;28;20255;-62
2022/04/20 05:15:51;;;;;;;6.30;5.70;;;5.90;97.80;;;;;;5064928;28;20622;-62
2022/04/20 05:18:16;;;;;;;6.83;6.13;;;6.30;97.50;;;;;;5068702;28;20177;-61
2022/04/20 05:20:42;;;;;;;5.90;5.40;;;6.90;97.70;;;;;;5067677;28;20250;-62
2022/04/20 05:23:11;;;;;;;6.40;5.70;;;6.60;97.00;;;;;;5067601;28;20212;-62
2022/04/20 05:25:36;;;;;;;6.45;5.85;;;6.30;96.40;;;;;;5063687;28;20250;-61
2022/04/20 05:28:02;;;;;;;6.83;6.00;;;6.70;95.90;;;;;;5069743;28;20272;-62
2022/04/20 05:30:29;;;;;;;8.80;6.63;;;7.10;95.60;;;;;;5068281;28;20204;-61
2022/04/20 05:32:54;;;;;;;6.32;5.75;;;7.20;94.40;;;;;;5067259;28;20181;-62
2022/04/20 05:35:20;;;;;;;6.33;5.83;;;7.20;94.80;;;;;;5068721;28;20208;-62
2022/04/20 05:43:14;;;;;;;6.72;6.13;;;7.40;94.20;;;;;;5068404;28;20211;-62
2022/04/20 05:45:40;;;;;;;9.67;6.40;;;7.50;93.90;;;;;;5076535;28;20568;-62
2022/04/20 05:48:05;;;;;;;6.33;5.73;;;7.60;94.10;;;;;;5069116;28;20641;-62
2022/04/20 05:50:31;;;;;;;7.37;6.50;;;8.10;93.80;;;;;;5068794;28;20208;-61
2022/04/20 05:52:56;;;;;;;6.63;5.90;;;7.50;93.30;;;;;;5071768;28;20272;-62
2022/04/20 05:55:22;;;;;;;7.93;5.23;;;7.80;93.00;;;;;;5073092;28;20188;-62
2022/04/20 05:57:47;;;;;;;6.33;5.83;;;8.20;92.80;;;;;;5072734;28;20180;-62
2022/04/20 06:00:14;;;;;;;7.73;5.67;;;8.20;92.30;;;;;;5072066;28;20209;-63
2022/04/20 06:02:40;;;;;;;6.60;5.93;;;8.10;91.80;;;;;;5071171;28;20261;-62
2022/04/20 06:05:07;;;;;;;5.77;5.27;;;8.40;91.70;;;;;;5069339;28;20601;-63
2022/04/20 06:07:33;;;;;;;11.05;5.10;;;8.60;90.90;;;;;;5071551;28;20280;-63
2022/04/20 06:09:59;;;;;;;5.93;5.37;;;8.70;90.60;;;;;;5071351;28;20322;-63
2022/04/20 06:12:24;;;;;;;7.23;5.43;;;9.00;90.30;;;;;;5068616;28;20933;-62
2022/04/20 06:14:50;;;;;;;6.97;4.50;;;8.90;89.60;;;;;;5070523;28;20209;-62
2022/04/20 06:17:16;;;;;;;5.60;4.97;;;9.30;87.70;;;;;;5070952;28;20189;-63
2022/04/20 06:19:41;;;;;;;7.53;4.90;;;9.20;86.30;;;;;;5070285;28;20188;-63
2022/04/20 06:22:07;;;;;;;4.90;4.50;;;9.30;85.60;;;;;;5072336;28;20214;-63
2022/04/20 06:24:32;;;;;;;5.97;5.47;;;9.40;83.30;;;;;;5071435;28;20675;-63
2022/04/20 06:26:58;;;;;;;5.60;5.10;;;9.80;84.00;;;;;;5066386;28;20177;-63
2022/04/20 06:29:24;;;;;;;6.10;4.73;;;10.40;80.30;;;;;;5065062;28;20582;-63
2022/04/20 06:31:51;;;;;;;4.97;4.57;;;10.20;78.40;;;;;;5066331;28;20205;-63
2022/04/20 06:34:17;;;;;;;5.60;5.07;;;9.90;79.40;;;;;;5069299;28;20217;-63
2022/04/20 06:36:43;;;;;;;4.10;3.70;;;10.00;77.90;;;;;;5066214;28;20590;-62
2022/04/20 06:39:08;;;;;;;9.73;4.43;;;10.30;77.50;;;;;;5069344;28;20179;-61
2022/04/20 06:41:34;;;;;;;8.40;4.33;;;10.30;76.50;;;;;;5069692;28;20396;-62
2022/04/20 06:43:59;;;;;;;4.40;4.00;;;10.60;74.50;;;;;;5067553;28;20243;-62
2022/04/20 06:46:25;;;;;;;4.50;4.10;;;11.40;73.00;;;;;;5067675;28;20192;-63
2022/04/20 06:48:51;;;;;;;4.00;3.70;;;11.40;70.10;;;;;;5067938;28;20245;-63
2022/04/20 06:51:16;;;;;;;3.97;3.67;;;12.10;67.30;;;;;;5068733;28;20224;-63
2022/04/20 06:59:10;;;;;;;4.05;3.65;;;13.60;62.00;;;;;;5068185;28;20558;-65
2022/04/20 07:01:36;;;;;;;4.00;3.67;;;14.10;59.50;;;;;;5070026;28;20180;-63
2022/04/20 07:04:01;;;;;;;4.30;3.60;;;15.30;58.30;;;;;;5065926;28;20459;-65
2022/04/20 07:06:27;;;;;;;3.73;3.40;;;16.30;54.10;;;;;;5066502;28;20181;-71
2022/04/20 07:08:53;;;;;;;3.93;3.63;;;16.70;52.50;;;;;;5067158;28;20271;-70
2022/04/20 07:11:19;;;;;;;3.93;3.63;;;17.20;51.50;;;;;;5066995;28;20467;-72
2022/04/20 07:13:46;;;;;;;3.77;3.43;;;17.40;49.90;;;;;;5069698;28;20235;-71
2022/04/20 07:16:12;;;;;;;3.85;3.53;;;17.40;49.60;;;;;;5067324;28;20780;-67
2022/04/20 07:18:37;;;;;;;4.30;3.93;;;18.80;48.20;;;;;;5069066;28;20199;-67
2022/04/20 07:21:03;;;;;;;4.40;4.10;;;18.80;46.80;;;;;;5069261;28;20197;-65
2022/04/20 07:23:29;;;;;;;4.07;3.70;;;18.70;46.80;;;;;;5065372;28;20279;-69
2022/04/20 07:25:55;;;;;;;4.13;3.83;;;18.70;45.50;;;;;;5067019;28;20718;-69
2022/04/20 07:28:21;;;;;;;4.07;3.77;;;18.80;45.90;;;;;;5060975;28;20492;-66
2022/04/20 07:30:47;;;;;;;3.92;3.63;;;20.90;44.70;;;;;;5069340;28;20212;-66
2022/04/20 07:33:16;;;;;;;3.87;3.47;;;20.70;42.30;;;;;;5070506;28;20277;-65
2022/04/20 07:35:45;;;;;;;4.17;3.80;;;21.50;41.90;;;;;;5068014;28;20804;-66
2022/04/20 07:38:12;;;;;;;4.03;3.57;;;21.90;40.10;;;;;;5065701;28;20428;-66
2022/04/20 07:40:37;;;;;;;4.20;3.70;;;21.80;39.60;;;;;;5066479;28;20474;-66
2022/04/20 07:43:03;;;;;;;4.63;4.10;;;22.20;39.10;;;;;;5069302;28;20986;-65
2022/04/20 07:45:29;;;;;;;3.60;3.40;;;21.30;39.10;;;;;;5070628;28;20185;-65
2022/04/20 07:47:56;;;;;;;4.03;3.73;;;21.50;39.10;;;;;;5068269;28;20438;-65
2022/04/20 07:50:25;;;;;;;4.00;3.70;;;21.80;38.70;;;;;;5069233;28;20608;-66
2022/04/20 07:52:57;;;;;;;5.33;3.37;;;21.70;39.00;;;;;;5066369;28;20436;-66
2022/04/20 07:55:29;;;;;;;6.40;5.73;;;21.40;39.30;;;;;;5062977;28;20525;-71
2022/04/20 07:57:57;;;;;;;5.37;4.40;;;22.50;39.00;;;;;;5060988;28;20439;-74
2022/04/20 08:00:23;;;;;;;4.30;4.00;;;22.50;37.80;;;;;;5064251;28;21476;-67
2022/04/20 08:02:50;;;;;;;4.43;4.10;;;22.70;37.60;;;;;;5079298;28;20523;-70
2022/04/20 08:05:17;;;;;;;3.90;3.50;;;22.60;37.70;;;;;;5065525;28;20729;-64
2022/04/20 08:07:44;;;;;;;4.60;4.20;;;23.10;36.80;;;;;;5054500;28;20441;-64
2022/04/20 08:10:12;;;;;;;4.70;4.30;;;23.40;36.00;;;;;;5064712;28;20460;-64
2022/04/20 08:12:42;;;;;;;4.50;4.13;;;22.90;36.10;;;;;;5062949;28;20440;-67
2022/04/20 08:15:09;;;;;;;4.73;4.43;;;23.10;36.10;;;;;;5065272;28;20442;-68
2022/04/20 08:17:35;;;;;;;4.07;3.87;;;23.20;36.30;;;;;;5066479;28;20441;-68
2022/04/20 08:20:02;;;;;;;4.70;4.30;;;23.70;36.40;;;;;;5065803;28;20442;-68
2022/04/20 08:22:28;;;;;;;4.70;4.30;;;25.10;34.60;;;;;;5068913;28;20423;-68
2022/04/20 08:24:54;;;;;;;4.40;4.00;;;25.30;33.20;;;;;;5066990;28;20982;-68
2022/04/20 08:27:20;;;;;;;4.70;4.30;;;24.80;33.40;;;;;;5067944;28;20480;-68
2022/04/20 08:29:49;;;;;;;5.70;4.40;;;25.00;34.00;;;;;;5066719;28;20522;-69
2022/04/20 08:32:16;;;;;;;4.50;4.20;;;24.60;33.30;;;;;;5062274;28;20254;-68
2022/04/20 08:34:45;;;;;;;3.93;3.60;;;23.20;35.00;;;;;;5069328;28;20466;-69
2022/04/20 08:37:11;;;;;;;4.43;4.17;;;24.70;34.50;;;;;;5069072;28;21065;-68
2022/04/20 08:39:38;;;;;;;4.30;4.00;;;25.10;33.30;;;;;;5066959;28;20466;-69
2022/04/20 08:42:06;;;;;;;4.57;4.27;;;24.50;33.70;;;;;;5062050;28;20568;-69
2022/04/20 08:44:35;;;;;;;4.67;4.17;;;24.90;34.00;;;;;;5060519;28;20470;-68
2022/04/20 08:47:02;;;;;;;5.23;4.73;;;24.80;34.40;;;;;;5065574;28;20451;-69
2022/04/20 08:49:28;;;;;;;6.73;4.90;;;25.20;33.50;;;;;;5067673;28;21024;-68
2022/04/20 08:54:39;;;;;;;5.80;5.23;;;25.90;32.90;;;;;;5064040;28;20212;-63
2022/04/20 08:57:20;;;;;;;9.80;8.87;;;24.80;33.50;;;;;;5064478;28;20897;-64
2022/04/20 08:59:49;;;;;;;4.60;4.20;;;24.70;34.10;;;;;;5066152;28;20441;-64
2022/04/20 09:02:24;;;;;;;5.03;4.63;;;25.10;33.30;;;;;;5062432;28;20435;-64
2022/04/20 09:04:50;;;;;;;5.80;4.10;;;24.10;34.10;;;;;;5068502;28;20463;-64
2022/04/20 09:07:16;;;;;;;4.90;4.47;;;24.40;33.30;;;;;;5068595;28;20818;-64
2022/04/20 09:09:42;;;;;;;4.80;4.40;;;24.10;33.50;;;;;;5068792;28;20449;-64
2022/04/20 09:12:19;;;;;;;4.60;4.20;;;24.00;34.00;;;;;;5067423;28;20262;-64
2022/04/20 09:14:50;;;;;;;4.73;4.30;;;23.70;34.20;;;;;;5068836;28;20249;-63
2022/04/20 09:17:18;;;;;;;5.67;3.93;;;23.90;33.90;;;;;;5065744;28;20796;-64
2022/04/20 09:19:45;;;;;;;3.60;3.30;;;23.50;33.70;;;;;;5068333;28;20471;-64
2022/04/20 09:22:20;;;;;;;4.07;3.77;;;23.30;33.50;;;;;;5068624;28;20516;-64
2022/04/20 09:25:07;;;;;;;4.03;3.60;;;23.70;32.80;;;;;;5066553;28;20490;-64
2022/04/20 09:27:43;;;;;;;4.07;3.57;;;23.20;33.00;;;;;;5061828;28;20437;-64
2022/04/20 09:30:14;;;;;;;4.00;3.70;;;23.00;33.40;;;;;;5062175;28;20491;-63
2022/04/20 09:32:41;;;;;;;4.00;3.60;;;22.30;33.00;;;;;;5063893;28;20443;-64
2022/04/20 09:35:12;;;;;;;3.73;3.43;;;22.50;33.80;;;;;;5068208;28;20442;-64
2022/04/20 09:37:40;;;;;;;4.10;3.80;;;22.50;33.40;;;;;;5067145;28;20773;-63
2022/04/20 09:40:11;;;;;;;4.57;3.10;;;21.00;33.80;;;;;;5067237;28;20439;-64
2022/04/20 09:42:36;;;;;;;3.37;3.17;;;21.50;35.00;;;;;;5066418;28;20435;-64
2022/04/20 09:45:05;;;;;;;4.00;3.57;;;21.90;34.50;;;;;;5068640;28;20584;-63
2022/04/20 09:50:27;;;;;;;3.63;3.33;;;21.50;34.10;;;;;;5068731;28;20426;-63
2022/04/20 09:53:00;;;;;;;3.87;3.23;;;21.20;34.10;;;;;;5068091;28;20595;-64
2022/04/20 09:55:28;;;;;;;3.37;3.07;;;21.40;34.50;;;;;;5066482;28;20826;-64
2022/04/20 09:58:08;;;;;;;4.77;4.20;;;22.10;33.20;;;;;;5067510;28;20481;-64
2022/04/20 10:00:41;;;;;;;4.23;3.93;;;22.10;32.60;;;;;;5068311;28;20450;-63
2022/04/20 10:03:07;;;;;;;3.77;3.37;;;22.30;33.20;;;;;;5055128;28;20561;-63
2022/04/20 10:05:33;;;;;;;3.67;3.37;;;22.00;33.10;;;;;;5066516;28;20517;-64
2022/04/20 10:07:59;;;;;;;3.40;3.10;;;21.90;33.20;;;;;;5069528;28;20626;-64
2022/04/20 10:10:28;;;;;;;3.80;3.50;;;21.50;31.80;;;;;;5062998;28;20471;-64
2022/04/20 10:12:54;;;;;;;4.45;3.30;;;20.60;32.10;;;;;;5067799;28;20961;-63
2022/04/20 10:16:11;;;;;;;3.60;3.30;;;19.70;34.20;;;;;;5068605;28;20196;-63
2022/04/20 10:18:18;;;;;;;3.58;3.30;;;19.40;34.70;;;;;;5058162;28;20228;-63
2022/04/20 10:20:47;;;;;;;3.78;3.22;;;18.70;35.80;;;;;;5067364;28;20275;-63
2022/04/20 10:23:16;;;;;;;4.13;3.60;;;18.70;35.80;;;;;;5068331;28;20209;-63
2022/04/20 10:25:43;;;;;;;3.33;3.00;;;18.60;36.40;;;;;;5068336;28;20197;-63
2022/04/20 10:28:33;;;;;;;4.40;3.60;;;18.40;36.20;;;;;;5056850;28;20209;-63
2022/04/20 10:31:24;;;;;;;3.72;3.42;;;18.30;36.10;;;;;;5060594;28;20201;-63
2022/04/20 10:33:50;;;;;;;4.05;3.65;;;18.00;37.00;;;;;;5070949;28;20663;-65
2022/04/20 10:36:18;;;;;;;3.20;2.90;;;18.00;37.20;;;;;;5071968;28;20188;-65
2022/04/20 10:38:46;;;;;;;4.00;3.60;;;18.30;36.90;;;;;;5069322;28;20263;-63
2022/04/20 10:41:17;;;;;;;4.35;4.05;;;18.40;38.10;;;;;;5065218;28;20676;-62
2022/04/20 10:43:43;;;;;;;3.67;3.38;;;18.80;36.60;;;;;;5054316;28;20350;-63
2022/04/20 10:46:21;;;;;;;5.07;3.35;;;19.50;36.70;;;;;;5059996;28;20279;-62
2022/04/20 10:48:55;;;;;;;3.78;3.47;;;19.60;35.70;;;;;;5066956;28;20226;-62
2022/04/20 10:51:42;;;;;;;3.47;3.17;;;20.10;34.80;;;;;;5066674;28;20220;-62
2022/04/20 10:54:27;;;;;;;5.90;3.47;;;20.10;34.30;;;;;;5067140;28;20685;-62
2022/04/20 10:57:02;;;;;;;3.50;3.20;;;20.10;34.50;;;;;;5060313;28;20211;-63
2022/04/20 10:59:30;;;;;;;3.47;3.17;;;20.90;33.40;;;;;;5070430;28;20183;-63
2022/04/20 11:01:59;;;;;;;3.53;3.20;;;21.00;33.00;;;;;;5067823;28;20189;-63
2022/04/20 11:04:48;;;;;;;3.40;3.20;;;21.60;32.20;;;;;;5064770;28;20459;-63
2022/04/20 11:07:15;;;;;;;3.53;3.22;;;21.20;32.40;;;;;;5067850;28;20987;-63
2022/04/20 11:09:52;;;;;;;3.70;3.40;;;20.80;32.70;;;;;;5069509;28;20276;-63
2022/04/20 11:21:03;;;;;;;3.95;3.65;;;19.60;33.50;;;;;;5070944;28;20231;-62
2022/04/20 11:23:59;;;;;;;3.60;3.20;;;19.30;34.30;;;;;;5069756;28;20248;-62
2022/04/20 11:26:27;;;;;;;3.75;3.45;;;19.10;34.00;;;;;;5068096;28;20506;-62
2022/04/20 11:28:58;;;;;;;3.72;3.30;;;19.80;34.10;;;;;;5070702;28;20188;-62
2022/04/20 11:31:24;;;;;;;3.47;3.28;;;20.30;33.40;;;;;;5066990;28;20205;-62
2022/04/20 11:33:52;;;;;;;3.37;3.07;;;20.10;33.20;;;;;;5070481;28;20557;-62
2022/04/20 11:36:17;;;;;;;3.10;2.80;;;19.60;32.30;;;;;;5067764;28;20435;-62
2022/04/20 11:38:44;;;;;;;3.23;2.93;;;19.80;32.50;;;;;;5069549;28;20901;-63
2022/04/20 11:41:11;;;;;;;4.07;2.88;;;20.10;32.70;;;;;;5069816;28;20185;-64
2022/04/20 11:43:40;;;;;;;3.28;3.08;;;19.70;32.50;;;;;;5069615;28;20215;-63
2022/04/20 11:46:10;;;;;;;4.00;3.70;;;19.80;34.10;;;;;;5063890;28;20181;-63
2022/04/20 11:48:37;;;;;;;3.97;3.67;;;19.80;33.70;;;;;;5070795;28;20205;-63
2022/04/20 11:51:07;;;;;;;3.22;2.90;;;20.00;33.60;;;;;;5067454;28;20219;-63
2022/04/20 11:53:41;;;;;;;3.70;3.42;;;20.40;33.50;;;;;;5065207;28;20204;-61
2022/04/20 11:56:11;;;;;;;3.88;3.58;;;19.90;33.70;;;;;;5061460;28;20267;-61
2022/04/20 11:58:37;;;;;;;3.58;3.38;;;19.60;34.00;;;;;;5060646;28;20177;-69
2022/04/20 12:01:07;;;;;;;3.95;3.55;;;19.00;34.30;;;;;;5058648;28;20212;-70
2022/04/20 12:03:37;;;;;;;3.45;3.25;;;18.50;33.20;;;;;;5059874;28;20355;-67
2022/04/20 12:06:05;;;;;;;3.60;3.40;;;18.30;33.60;;;;;;5067884;28;20725;-67
2022/04/20 12:08:40;;;;;;;3.60;3.40;;;18.10;34.20;;;;;;5061990;28;20601;-68
2022/04/20 12:11:08;;;;;;;4.35;3.95;;;18.00;34.30;;;;;;5065663;28;20758;-66
2022/04/20 12:13:34;;;;;;;4.97;3.50;;;17.50;35.10;;;;;;5067045;28;20201;-65
2022/04/20 12:16:08;;;;;;;4.25;3.95;;;17.30;35.70;;;;;;5066104;28;20177;-65
2022/04/20 12:18:43;;;;;;;3.88;3.47;;;17.10;35.80;;;;;;5062978;28;20258;-65
2022/04/20 12:21:36;;;;;;;5.05;3.78;;;17.20;36.20;;;;;;5060756;28;20585;-65
2022/04/20 12:24:03;;;;;;;4.10;3.80;;;17.10;35.90;;;;;;5061950;28;20354;-65
2022/04/20 12:26:30;;;;;;;3.80;3.40;;;17.10;36.00;;;;;;5067529;28;20812;-66
2022/04/20 12:29:03;;;;;;;3.45;3.25;;;17.00;36.10;;;;;;5068692;28;20219;-65
2022/04/20 12:31:30;;;;;;;3.72;3.42;;;16.90;36.40;;;;;;5060240;28;20307;-66
2022/04/20 12:34:06;;;;;;;3.42;3.03;;;16.90;35.60;;;;;;5067733;28;20200;-64
2022/04/20 12:36:59;;;;;;;3.78;3.47;;;16.90;36.30;;;;;;5066016;28;20180;-65
2022/04/20 12:39:32;;;;;;;3.80;3.50;;;16.80;36.40;;;;;;5062855;28;20187;-65
2022/04/20 12:42:02;;;;;;;5.30;3.67;;;17.00;36.80;;;;;;5069988;28;20197;-65
2022/04/20 12:44:37;;;;;;;3.63;3.30;;;17.10;36.50;;;;;;5062044;28;20204;-65
2022/04/20 12:47:04;;;;;;;3.40;3.00;;;17.30;36.20;;;;;;5064736;28;20189;-65
2022/04/20 12:49:30;;;;;;;3.45;3.15;;;17.30;35.40;;;;;;5063409;28;20231;-66
2022/04/20 12:52:08;;;;;;;3.57;3.27;;;17.00;34.70;;;;;;5058371;28;20563;-65
2022/04/20 12:54:35;;;;;;;3.78;3.47;;;16.90;35.20;;;;;;5067752;28;20406;-65
2022/04/20 13:02:29;;;;;;;3.55;3.25;;;17.10;35.40;;;;;;5065850;28;20321;-65
2022/04/20 13:04:55;;;;;;;4.70;3.30;;;16.80;35.90;;;;;;5068944;28;20304;-65
2022/04/20 13:07:20;;;;;;;3.20;3.00;;;17.20;35.50;;;;;;5063583;28;20185;-64
2022/04/20 13:09:46;;;;;;;3.10;2.87;;;16.90;35.40;;;;;;5068974;28;20201;-65
2022/04/20 13:12:12;;;;;;;3.30;2.93;;;16.80;35.50;;;;;;5066100;28;20258;-65
2022/04/20 13:14:38;;;;;;;4.53;3.77;;;16.80;35.40;;;;;;5066314;28;20579;-64
2022/04/20 13:17:09;;;;;;;3.10;2.90;;;16.90;35.70;;;;;;5061574;28;20689;-64
2022/04/20 13:19:38;;;;;;;2.92;2.67;;;16.70;35.90;;;;;;5069358;28;20267;-64
2022/04/20 13:22:04;;;;;;;4.25;3.95;;;16.80;36.20;;;;;;5069722;28;20181;-65
2022/04/20 13:29:59;;;;;;;3.83;3.53;;;16.40;35.40;;;;;;5059720;28;20221;-64
2022/04/20 13:32:25;;;;;;;3.53;3.28;;;16.30;36.00;;;;;;5062446;28;20216;-69